Time,TemperatureF,DewpointF,PressureIn,WindDirection,WindDirectionDegrees,WindSpeedMPH,WindSpeedGustMPH,Humidity,HourlyPrecipIn,Conditions,Clouds,dailyrainin,SolarRadiationWatts/m^2,SoftwareType,DateUTC
2013-04-16 00:03:00,62.0,52.0,-100.00,NE,49,4.0,8.0,71,0.03,,,0.25,0.000000,,2013-04-16 04:03:00,
2013-04-16 00:13:00,62.0,52.0,-100.00,NE,49,4.0,8.0,71,0.03,,,0.25,0.000000,,2013-04-16 04:13:00,
2013-04-16 00:23:00,62.0,52.0,-100.00,NE,49,4.0,8.0,71,0.03,,,0.25,0.000000,,2013-04-16 04:23:00,
2013-04-16 00:53:00,63.0,53.0,-100.00,NNE,23,2.0,8.0,71,0.01,,,0.26,0.000000,,2013-04-16 04:53:00,
2013-04-16 01:03:00,63.0,53.0,-100.00,NNE,23,2.0,8.0,71,0.01,,,0.26,0.000000,,2013-04-16 05:03:00,
2013-04-16 01:12:00,63.0,53.0,-100.00,NNE,23,2.0,8.0,71,0.01,,,0.26,0.000000,,2013-04-16 05:12:00,
2013-04-16 01:22:00,63.0,53.0,-100.00,NNE,23,2.0,8.0,71,0.01,,,0.26,0.000000,,2013-04-16 05:22:00,
2013-04-16 01:52:00,63.0,53.0,-100.00,NNE,33,3.0,11.0,71,0.00,,,0.26,0.000000,,2013-04-16 05:52:00,
2013-04-16 02:02:00,63.0,53.0,-100.00,NNE,33,3.0,11.0,71,0.00,,,0.26,0.000000,,2013-04-16 06:02:00,
2013-04-16 02:12:00,63.0,53.0,-100.00,NNE,33,3.0,11.0,71,0.00,,,0.26,0.000000,,2013-04-16 06:12:00,
2013-04-16 02:22:00,63.0,53.0,-100.00,NNE,33,3.0,11.0,71,0.00,,,0.26,0.000000,,2013-04-16 06:22:00,
2013-04-16 02:52:00,64.0,54.0,-100.00,NE,41,3.0,10.0,71,0.03,,,0.29,0.000000,,2013-04-16 06:52:00,
2013-04-16 03:02:00,64.0,54.0,-100.00,NE,41,3.0,10.0,71,0.03,,,0.29,0.000000,,2013-04-16 07:02:00,
2013-04-16 03:12:00,64.0,54.0,-100.00,NE,41,3.0,10.0,71,0.03,,,0.29,0.000000,,2013-04-16 07:12:00,
2013-04-16 03:22:00,64.0,54.0,-100.00,NE,41,3.0,10.0,71,0.03,,,0.29,0.000000,,2013-04-16 07:22:00,
2013-04-16 03:53:00,63.0,53.0,-100.00,ENE,73,6.0,10.0,71,0.02,,,0.31,0.000000,,2013-04-16 07:53:00,
2013-04-16 04:02:00,63.0,53.0,-100.00,ENE,73,6.0,10.0,71,0.02,,,0.31,0.000000,,2013-04-16 08:02:00,
2013-04-16 04:12:00,63.0,53.0,-100.00,ENE,73,6.0,10.0,71,0.02,,,0.31,0.000000,,2013-04-16 08:12:00,
2013-04-16 04:22:00,63.0,53.0,-100.00,ENE,73,6.0,10.0,71,0.02,,,0.31,0.000000,,2013-04-16 08:22:00,
2013-04-16 04:52:00,64.0,55.0,-100.00,ESE,107,4.0,9.0,72,0.14,,,0.45,0.000000,,2013-04-16 08:52:00,
2013-04-16 05:02:00,64.0,55.0,-100.00,ESE,107,4.0,9.0,72,0.14,,,0.45,0.000000,,2013-04-16 09:02:00,
2013-04-16 05:12:00,64.0,55.0,-100.00,ESE,107,4.0,9.0,72,0.14,,,0.45,0.000000,,2013-04-16 09:12:00,
2013-04-16 05:22:00,64.0,55.0,-100.00,ESE,107,4.0,9.0,72,0.14,,,0.45,0.000000,,2013-04-16 09:22:00,
2013-04-16 05:53:00,64.0,54.0,-100.00,NNE,32,2.0,5.0,71,0.00,,,0.45,0.000000,,2013-04-16 09:53:00,
2013-04-16 06:03:00,64.0,54.0,-100.00,NNE,32,2.0,5.0,71,0.00,,,0.45,0.000000,,2013-04-16 10:03:00,
2013-04-16 06:13:00,64.0,54.0,-100.00,NNE,32,2.0,5.0,71,0.00,,,0.45,0.000000,,2013-04-16 10:13:00,
2013-04-16 06:23:00,64.0,54.0,-100.00,NNE,32,2.0,5.0,71,0.00,,,0.45,0.000000,,2013-04-16 10:23:00,
2013-04-16 06:53:00,63.0,53.0,-100.00,NNW,328,2.0,6.0,71,0.00,,,0.41,0.000000,,2013-04-16 10:53:00,
2013-04-16 07:03:00,63.0,53.0,-100.00,NNW,328,2.0,6.0,71,0.00,,,0.41,0.000000,,2013-04-16 11:03:00,
2013-04-16 07:12:00,63.0,53.0,-100.00,NNW,328,2.0,6.0,71,0.00,,,0.41,0.000000,,2013-04-16 11:12:00,
2013-04-16 07:22:00,63.0,53.0,-100.00,NNW,328,2.0,6.0,71,0.00,,,0.41,0.000000,,2013-04-16 11:22:00,
2013-04-16 07:53:00,63.0,53.0,-100.00,NNW,339,2.0,5.0,71,0.00,,,0.41,16.000000,,2013-04-16 11:53:00,
2013-04-16 08:02:00,63.0,53.0,-100.00,NNW,339,2.0,5.0,71,0.00,,,0.41,16.000000,,2013-04-16 12:02:00,
2013-04-16 08:12:00,63.0,53.0,-100.00,NNW,339,2.0,5.0,71,0.00,,,0.41,16.000000,,2013-04-16 12:12:00,
2013-04-16 08:22:00,63.0,53.0,-100.00,NNW,339,2.0,5.0,71,0.00,,,0.41,16.000000,,2013-04-16 12:22:00,
2013-04-16 08:52:00,64.0,54.0,-100.00,NNE,25,3.0,6.0,70,0.00,,,0.40,71.000000,,2013-04-16 12:52:00,
2013-04-16 09:02:00,64.0,54.0,-100.00,NNE,25,3.0,6.0,70,0.00,,,0.40,71.000000,,2013-04-16 13:02:00,
2013-04-16 09:12:00,64.0,54.0,-100.00,NNE,25,3.0,6.0,70,0.00,,,0.40,71.000000,,2013-04-16 13:12:00,
2013-04-16 09:22:00,64.0,54.0,-100.00,NNE,25,3.0,6.0,70,0.00,,,0.40,71.000000,,2013-04-16 13:22:00,
2013-04-16 09:52:00,66.0,55.0,-100.00,NE,48,3.0,6.0,67,0.00,,,0.31,166.000000,,2013-04-16 13:52:00,
2013-04-16 10:02:00,66.0,55.0,-100.00,NE,48,3.0,6.0,67,0.00,,,0.31,166.000000,,2013-04-16 14:02:00,
2013-04-16 10:12:00,66.0,55.0,-100.00,NE,48,3.0,6.0,67,0.00,,,0.31,166.000000,,2013-04-16 14:12:00,
2013-04-16 10:22:00,66.0,55.0,-100.00,NE,48,3.0,6.0,67,0.00,,,0.31,166.000000,,2013-04-16 14:22:00,
2013-04-16 10:52:00,67.0,55.0,-100.00,ENE,62,3.0,6.0,65,0.00,,,0.26,293.000000,,2013-04-16 14:52:00,
2013-04-16 11:02:00,67.0,55.0,-100.00,ENE,62,3.0,6.0,65,0.00,,,0.26,293.000000,,2013-04-16 15:02:00,
2013-04-16 11:12:00,67.0,55.0,-100.00,ENE,62,3.0,6.0,65,0.00,,,0.26,293.000000,,2013-04-16 15:12:00,
2013-04-16 11:22:00,67.0,55.0,-100.00,ENE,62,3.0,6.0,65,0.00,,,0.26,293.000000,,2013-04-16 15:22:00,
2013-04-16 11:53:00,69.0,56.0,-100.00,NE,56,5.0,8.0,63,0.00,,,0.25,449.000000,,2013-04-16 15:53:00,
2013-04-16 12:03:00,69.0,56.0,-100.00,NE,56,5.0,8.0,63,0.00,,,0.25,449.000000,,2013-04-16 16:03:00,
2013-04-16 12:13:00,69.0,56.0,-100.00,NE,56,5.0,8.0,63,0.00,,,0.25,449.000000,,2013-04-16 16:13:00,
2013-04-16 12:23:00,69.0,56.0,-100.00,NE,56,5.0,8.0,63,0.00,,,0.25,449.000000,,2013-04-16 16:23:00,
2013-04-16 12:53:00,69.0,55.0,-100.00,ENE,67,7.0,9.0,62,0.00,,,0.25,600.000000,,2013-04-16 16:53:00,
2013-04-16 13:02:00,69.0,55.0,-100.00,ENE,67,7.0,9.0,62,0.00,,,0.25,600.000000,,2013-04-16 17:02:00,
2013-04-16 13:12:00,69.0,55.0,-100.00,ENE,67,7.0,9.0,62,0.00,,,0.25,600.000000,,2013-04-16 17:12:00,
2013-04-16 13:22:00,69.0,55.0,-100.00,ENE,67,7.0,9.0,62,0.00,,,0.25,600.000000,,2013-04-16 17:22:00,
2013-04-16 13:53:00,71.0,57.0,-100.00,ENE,66,7.0,11.0,61,0.00,,,0.25,649.000000,,2013-04-16 17:53:00,
2013-04-16 14:02:00,71.0,57.0,-100.00,ENE,66,7.0,11.0,61,0.00,,,0.25,649.000000,,2013-04-16 18:02:00,
2013-04-16 14:12:00,71.0,57.0,-100.00,ENE,66,7.0,11.0,61,0.00,,,0.25,649.000000,,2013-04-16 18:12:00,
2013-04-16 14:22:00,71.0,57.0,-100.00,ENE,66,7.0,11.0,61,0.00,,,0.25,649.000000,,2013-04-16 18:22:00,
2013-04-16 14:52:00,72.0,58.0,-100.00,ENE,72,6.0,10.0,61,0.00,,,0.25,699.000000,,2013-04-16 18:52:00,
2013-04-16 15:02:00,72.0,58.0,-100.00,ENE,72,6.0,10.0,61,0.00,,,0.25,699.000000,,2013-04-16 19:02:00,
2013-04-16 15:12:00,72.0,58.0,-100.00,ENE,72,6.0,10.0,61,0.00,,,0.25,699.000000,,2013-04-16 19:12:00,
2013-04-16 15:22:00,72.0,58.0,-100.00,ENE,72,6.0,10.0,61,0.00,,,0.25,699.000000,,2013-04-16 19:22:00,
2013-04-16 15:52:00,72.0,58.0,-100.00,ENE,63,6.0,9.0,61,0.00,,,0.25,673.000000,,2013-04-16 19:52:00,
2013-04-16 16:02:00,72.0,58.0,-100.00,ENE,63,6.0,9.0,61,0.00,,,0.25,673.000000,,2013-04-16 20:02:00,
2013-04-16 16:13:00,72.0,58.0,-100.00,ENE,63,6.0,9.0,61,0.00,,,0.25,673.000000,,2013-04-16 20:13:00,
2013-04-16 16:22:00,72.0,58.0,-100.00,ENE,63,6.0,9.0,61,0.00,,,0.25,673.000000,,2013-04-16 20:22:00,
2013-04-16 16:52:00,72.0,58.0,-100.00,ENE,69,6.0,9.0,62,0.00,,,0.25,634.000000,,2013-04-16 20:52:00,
2013-04-16 17:02:00,72.0,58.0,-100.00,ENE,69,6.0,9.0,62,0.00,,,0.25,634.000000,,2013-04-16 21:02:00,
2013-04-16 17:12:00,72.0,58.0,-100.00,ENE,69,6.0,9.0,62,0.00,,,0.25,634.000000,,2013-04-16 21:12:00,
2013-04-16 17:22:00,72.0,58.0,-100.00,ENE,69,6.0,9.0,62,0.00,,,0.25,634.000000,,2013-04-16 21:22:00,
2013-04-16 17:53:00,71.0,57.0,-100.00,ENE,74,6.0,8.0,62,0.00,,,0.25,404.000000,,2013-04-16 21:53:00,
2013-04-16 18:03:00,71.0,57.0,-100.00,ENE,74,6.0,8.0,62,0.00,,,0.25,404.000000,,2013-04-16 22:03:00,
2013-04-16 18:13:00,71.0,57.0,-100.00,ENE,74,6.0,8.0,62,0.00,,,0.25,404.000000,,2013-04-16 22:13:00,
2013-04-16 18:22:00,71.0,57.0,-100.00,ENE,74,6.0,8.0,62,0.00,,,0.25,404.000000,,2013-04-16 22:22:00,
2013-04-16 18:52:00,70.0,56.0,-100.00,East,87,6.0,9.0,62,0.00,,,0.25,80.000000,,2013-04-16 22:52:00,
2013-04-16 19:02:00,70.0,56.0,-100.00,East,87,6.0,9.0,62,0.00,,,0.25,80.000000,,2013-04-16 23:02:00,
2013-04-16 19:12:00,70.0,56.0,-100.00,East,87,6.0,9.0,62,0.00,,,0.25,80.000000,,2013-04-16 23:12:00,
2013-04-16 19:22:00,70.0,56.0,-100.00,East,87,6.0,9.0,62,0.00,,,0.25,80.000000,,2013-04-16 23:22:00,
2013-04-16 19:52:00,66.0,54.0,-100.00,East,91,8.0,11.0,66,0.00,,,0.25,65.000000,,2013-04-16 23:52:00,
2013-04-16 20:02:00,66.0,54.0,-100.00,East,91,8.0,11.0,66,0.00,,,0.25,65.000000,,2013-04-17 00:02:00,
2013-04-16 20:12:00,66.0,54.0,-100.00,East,91,8.0,11.0,66,0.00,,,0.25,65.000000,,2013-04-17 00:12:00,
2013-04-16 20:22:00,66.0,54.0,-100.00,East,91,8.0,11.0,66,0.00,,,0.25,65.000000,,2013-04-17 00:22:00,
2013-04-16 20:52:00,66.0,55.0,-100.00,East,88,6.0,9.0,67,0.00,,,0.25,2.000000,,2013-04-17 00:52:00,
2013-04-16 21:02:00,66.0,55.0,-100.00,East,88,6.0,9.0,67,0.00,,,0.25,2.000000,,2013-04-17 01:02:00,
2013-04-16 21:12:00,66.0,55.0,-100.00,East,88,6.0,9.0,67,0.00,,,0.25,2.000000,,2013-04-17 01:12:00,
2013-04-16 21:22:00,66.0,55.0,-100.00,East,88,6.0,9.0,67,0.00,,,0.25,2.000000,,2013-04-17 01:22:00,
2013-04-16 21:52:00,65.0,54.0,-100.00,East,92,6.0,8.0,68,0.00,,,0.25,0.000000,,2013-04-17 01:52:00,
2013-04-16 22:02:00,65.0,54.0,-100.00,East,92,6.0,8.0,68,0.00,,,0.25,0.000000,,2013-04-17 02:02:00,
2013-04-16 22:12:00,65.0,54.0,-100.00,East,92,6.0,8.0,68,0.00,,,0.25,0.000000,,2013-04-17 02:12:00,
2013-04-16 22:22:00,65.0,54.0,-100.00,East,92,6.0,8.0,68,0.00,,,0.25,0.000000,,2013-04-17 02:22:00,
2013-04-16 22:52:00,64.0,53.0,-100.00,East,96,4.0,8.0,68,0.00,,,0.23,0.000000,,2013-04-17 02:52:00,
2013-04-16 23:02:00,64.0,53.0,-100.00,East,96,4.0,8.0,68,0.00,,,0.23,0.000000,,2013-04-17 03:02:00,
2013-04-16 23:12:00,64.0,53.0,-100.00,East,96,4.0,8.0,68,0.00,,,0.23,0.000000,,2013-04-17 03:12:00,
2013-04-16 23:22:00,64.0,53.0,-100.00,East,96,4.0,8.0,68,0.00,,,0.23,0.000000,,2013-04-17 03:22:00,
2013-04-16 23:53:00,64.0,53.0,-100.00,East,100,4.0,6.0,68,0.00,,,0.20,0.000000,,2013-04-17 03:53:00,